sensor_id;sensor_type;location;lat;lon;timestamp;pressure;altitude;pressure_sealevel;temperature
10869;BMP180;62667;48.698;8.762;2023-10-08T00:02:10;96899.00;;;12.00
10869;BMP180;62667;48.698;8.762;2023-10-08T00:04:40;96894.00;;;12.10
10869;BMP180;62667;48.698;8.762;2023-10-08T00:07:10;96875.00;;;12.10
10869;BMP180;62667;48.698;8.762;2023-10-08T00:09:37;96880.00;;;12.00
10869;BMP180;62667;48.698;8.762;2023-10-08T00:12:06;96876.00;;;11.90
10869;BMP180;62667;48.698;8.762;2023-10-08T00:14:36;96872.00;;;12.00
10869;BMP180;62667;48.698;8.762;2023-10-08T00:17:11;96869.00;;;12.00
10869;BMP180;62667;48.698;8.762;2023-10-08T00:19:39;96864.00;;;12.00
10869;BMP180;62667;48.698;8.762;2023-10-08T00:22:09;96870.00;;;11.90
10869;BMP180;62667;48.698;8.762;2023-10-08T00:24:36;96867.00;;;11.80
10869;BMP180;62667;48.698;8.762;2023-10-08T00:27:08;96860.00;;;11.80
10869;BMP180;62667;48.698;8.762;2023-10-08T00:29:36;96861.00;;;11.70
10869;BMP180;62667;48.698;8.762;2023-10-08T00:32:06;96857.00;;;11.70
10869;BMP180;62667;48.698;8.762;2023-10-08T00:34:39;96855.00;;;11.80
10869;BMP180;62667;48.698;8.762;2023-10-08T00:37:09;96847.00;;;11.70
10869;BMP180;62667;48.698;8.762;2023-10-08T00:39:40;96850.00;;;11.70
10869;BMP180;62667;48.698;8.762;2023-10-08T00:42:09;96827.00;;;11.60
10869;BMP180;62667;48.698;8.762;2023-10-08T00:44:38;96816.00;;;11.80
10869;BMP180;62667;48.698;8.762;2023-10-08T00:47:15;96845.00;;;11.80
10869;BMP180;62667;48.698;8.762;2023-10-08T00:49:44;96836.00;;;11.90
10869;BMP180;62667;48.698;8.762;2023-10-08T00:52:29;96828.00;;;12.00
10869;BMP180;62667;48.698;8.762;2023-10-08T00:55:05;96829.00;;;12.00
10869;BMP180;62667;48.698;8.762;2023-10-08T00:57:36;96823.00;;;11.90
10869;BMP180;62667;48.698;8.762;2023-10-08T01:00:10;96823.00;;;11.70
10869;BMP180;62667;48.698;8.762;2023-10-08T01:02:47;96834.00;;;11.80
10869;BMP180;62667;48.698;8.762;2023-10-08T01:05:21;96832.00;;;11.90
10869;BMP180;62667;48.698;8.762;2023-10-08T01:07:55;96826.00;;;11.90
10869;BMP180;62667;48.698;8.762;2023-10-08T01:10:24;96824.00;;;11.80
10869;BMP180;62667;48.698;8.762;2023-10-08T01:12:53;96821.00;;;11.70
10869;BMP180;62667;48.698;8.762;2023-10-08T01:15:31;96825.00;;;11.70
10869;BMP180;62667;48.698;8.762;2023-10-08T01:18:02;96824.00;;;11.70
10869;BMP180;62667;48.698;8.762;2023-10-08T01:20:32;96808.00;;;11.60
10869;BMP180;62667;48.698;8.762;2023-10-08T01:23:05;96820.00;;;11.70
10869;BMP180;62667;48.698;8.762;2023-10-08T01:25:37;96826.00;;;11.80
10869;BMP180;62667;48.698;8.762;2023-10-08T01:28:05;96817.00;;;12.00
10869;BMP180;62667;48.698;8.762;2023-10-08T01:30:41;96811.00;;;12.10
10869;BMP180;62667;48.698;8.762;2023-10-08T01:33:12;96817.00;;;12.10
10869;BMP180;62667;48.698;8.762;2023-10-08T01:35:42;96811.00;;;12.10
10869;BMP180;62667;48.698;8.762;2023-10-08T01:38:10;96823.00;;;12.20
10869;BMP180;62667;48.698;8.762;2023-10-08T01:40:42;96820.00;;;12.30
10869;BMP180;62667;48.698;8.762;2023-10-08T01:43:16;96797.00;;;12.50
10869;BMP180;62667;48.698;8.762;2023-10-08T01:45:44;96820.00;;;12.50
10869;BMP180;62667;48.698;8.762;2023-10-08T01:48:15;96812.00;;;12.50
10869;BMP180;62667;48.698;8.762;2023-10-08T01:50:46;96805.00;;;12.50
10869;BMP180;62667;48.698;8.762;2023-10-08T01:53:15;96807.00;;;12.60
10869;BMP180;62667;48.698;8.762;2023-10-08T01:55:42;96805.00;;;12.70
10869;BMP180;62667;48.698;8.762;2023-10-08T01:58:16;96805.00;;;12.80
10869;BMP180;62667;48.698;8.762;2023-10-08T02:00:46;96804.00;;;12.80
10869;BMP180;62667;48.698;8.762;2023-10-08T02:03:14;96788.00;;;12.90
10869;BMP180;62667;48.698;8.762;2023-10-08T02:05:42;96801.00;;;12.90
10869;BMP180;62667;48.698;8.762;2023-10-08T02:08:10;96790.00;;;13.20
10869;BMP180;62667;48.698;8.762;2023-10-08T02:10:41;96788.00;;;13.20
10869;BMP180;62667;48.698;8.762;2023-10-08T02:13:13;96789.00;;;13.20
10869;BMP180;62667;48.698;8.762;2023-10-08T02:15:51;96785.00;;;13.20
10869;BMP180;62667;48.698;8.762;2023-10-08T02:18:19;96797.00;;;13.30
10869;BMP180;62667;48.698;8.762;2023-10-08T02:20:47;96789.00;;;13.30
10869;BMP180;62667;48.698;8.762;2023-10-08T02:23:15;96792.00;;;13.30
10869;BMP180;62667;48.698;8.762;2023-10-08T02:25:45;96785.00;;;13.20
10869;BMP180;62667;48.698;8.762;2023-10-08T02:28:14;96788.00;;;13.20
10869;BMP180;62667;48.698;8.762;2023-10-08T02:30:42;96786.00;;;13.20
10869;BMP180;62667;48.698;8.762;2023-10-08T02:33:09;96776.00;;;13.10
10869;BMP180;62667;48.698;8.762;2023-10-08T02:35:41;96782.00;;;13.10
10869;BMP180;62667;48.698;8.762;2023-10-08T02:38:10;96782.00;;;13.10
10869;BMP180;62667;48.698;8.762;2023-10-08T02:40:39;96778.00;;;13.10
10869;BMP180;62667;48.698;8.762;2023-10-08T02:43:12;96787.00;;;13.00
10869;BMP180;62667;48.698;8.762;2023-10-08T02:45:41;96788.00;;;12.90
10869;BMP180;62667;48.698;8.762;2023-10-08T02:48:08;96794.00;;;12.80
10869;BMP180;62667;48.698;8.762;2023-10-08T02:50:38;96792.00;;;12.60
10869;BMP180;62667;48.698;8.762;2023-10-08T02:53:06;96800.00;;;12.50
10869;BMP180;62667;48.698;8.762;2023-10-08T02:55:37;96806.00;;;12.40
10869;BMP180;62667;48.698;8.762;2023-10-08T02:58:08;96805.00;;;12.20
10869;BMP180;62667;48.698;8.762;2023-10-08T03:00:41;96774.00;;;12.10
10869;BMP180;62667;48.698;8.762;2023-10-08T03:03:08;96794.00;;;12.00
10869;BMP180;62667;48.698;8.762;2023-10-08T03:05:45;96794.00;;;12.00
10869;BMP180;62667;48.698;8.762;2023-10-08T03:08:13;96793.00;;;11.90
10869;BMP180;62667;48.698;8.762;2023-10-08T03:10:45;96789.00;;;11.90
10869;BMP180;62667;48.698;8.762;2023-10-08T03:13:14;96802.00;;;11.80
10869;BMP180;62667;48.698;8.762;2023-10-08T03:15:44;96802.00;;;11.90
10869;BMP180;62667;48.698;8.762;2023-10-08T03:18:23;96807.00;;;11.90
10869;BMP180;62667;48.698;8.762;2023-10-08T03:20:51;96807.00;;;11.80
10869;BMP180;62667;48.698;8.762;2023-10-08T03:23:18;96811.00;;;11.70
10869;BMP180;62667;48.698;8.762;2023-10-08T03:26:01;96803.00;;;11.50
10869;BMP180;62667;48.698;8.762;2023-10-08T03:28:36;96801.00;;;11.50
10869;BMP180;62667;48.698;8.762;2023-10-08T03:31:05;96805.00;;;11.60
10869;BMP180;62667;48.698;8.762;2023-10-08T03:33:39;96796.00;;;11.50
10869;BMP180;62667;48.698;8.762;2023-10-08T03:36:09;96801.00;;;11.50
10869;BMP180;62667;48.698;8.762;2023-10-08T03:38:40;96807.00;;;11.50
10869;BMP180;62667;48.698;8.762;2023-10-08T03:41:18;96804.00;;;11.50
10869;BMP180;62667;48.698;8.762;2023-10-08T03:43:53;96792.00;;;11.50
10869;BMP180;62667;48.698;8.762;2023-10-08T03:46:29;96796.00;;;11.60
10869;BMP180;62667;48.698;8.762;2023-10-08T03:48:56;96805.00;;;11.60
10869;BMP180;62667;48.698;8.762;2023-10-08T03:51:30;96808.00;;;11.50
10869;BMP180;62667;48.698;8.762;2023-10-08T03:54:05;96809.00;;;11.40
10869;BMP180;62667;48.698;8.762;2023-10-08T03:56:46;96802.00;;;11.40
10869;BMP180;62667;48.698;8.762;2023-10-08T03:59:15;96800.00;;;11.50
10869;BMP180;62667;48.698;8.762;2023-10-08T04:01:58;96800.00;;;11.40
10869;BMP180;62667;48.698;8.762;2023-10-08T04:04:35;96805.00;;;11.40
10869;BMP180;62667;48.698;8.762;2023-10-08T04:07:17;96804.00;;;11.50
10869;BMP180;62667;48.698;8.762;2023-10-08T04:10:25;96799.00;;;11.40
10869;BMP180;62667;48.698;8.762;2023-10-08T04:13:26;96806.00;;;11.40
10869;BMP180;62667;48.698;8.762;2023-10-08T04:15:54;96796.00;;;11.30
10869;BMP180;62667;48.698;8.762;2023-10-08T04:18:22;96790.00;;;11.40
10869;BMP180;62667;48.698;8.762;2023-10-08T04:20:49;96800.00;;;11.30
10869;BMP180;62667;48.698;8.762;2023-10-08T04:23:30;96801.00;;;11.30
10869;BMP180;62667;48.698;8.762;2023-10-08T04:25:58;96795.00;;;11.30
10869;BMP180;62667;48.698;8.762;2023-10-08T04:28:25;96804.00;;;11.30
10869;BMP180;62667;48.698;8.762;2023-10-08T04:30:57;96785.00;;;11.30
10869;BMP180;62667;48.698;8.762;2023-10-08T04:33:29;96785.00;;;11.30
10869;BMP180;62667;48.698;8.762;2023-10-08T04:35:59;96792.00;;;11.30
10869;BMP180;62667;48.698;8.762;2023-10-08T04:38:29;96785.00;;;11.30
10869;BMP180;62667;48.698;8.762;2023-10-08T04:41:02;96795.00;;;11.20
10869;BMP180;62667;48.698;8.762;2023-10-08T04:43:35;96789.00;;;11.20
10869;BMP180;62667;48.698;8.762;2023-10-08T04:46:05;96795.00;;;11.20
10869;BMP180;62667;48.698;8.762;2023-10-08T04:48:46;96787.00;;;11.40
10869;BMP180;62667;48.698;8.762;2023-10-08T04:51:15;96783.00;;;11.30
10869;BMP180;62667;48.698;8.762;2023-10-08T04:53:44;96784.00;;;11.40
10869;BMP180;62667;48.698;8.762;2023-10-08T04:56:14;96781.00;;;11.30
10869;BMP180;62667;48.698;8.762;2023-10-08T04:58:44;96779.00;;;11.30
10869;BMP180;62667;48.698;8.762;2023-10-08T05:01:14;96788.00;;;11.20
10869;BMP180;62667;48.698;8.762;2023-10-08T05:03:56;96794.00;;;11.20
10869;BMP180;62667;48.698;8.762;2023-10-08T05:06:49;96795.00;;;11.30
10869;BMP180;62667;48.698;8.762;2023-10-08T05:09:44;96813.00;;;11.40
10869;BMP180;62667;48.698;8.762;2023-10-08T05:12:37;96810.00;;;11.40
10869;BMP180;62667;48.698;8.762;2023-10-08T05:15:12;96813.00;;;11.40
10869;BMP180;62667;48.698;8.762;2023-10-08T05:17:59;96808.00;;;11.40
10869;BMP180;62667;48.698;8.762;2023-10-08T05:20:41;96814.00;;;11.40
10869;BMP180;62667;48.698;8.762;2023-10-08T05:23:25;96822.00;;;11.40
10869;BMP180;62667;48.698;8.762;2023-10-08T05:26:10;96816.00;;;11.40
10869;BMP180;62667;48.698;8.762;2023-10-08T05:28:46;96818.00;;;11.40
10869;BMP180;62667;48.698;8.762;2023-10-08T05:34:13;96816.00;;;11.30
10869;BMP180;62667;48.698;8.762;2023-10-08T05:36:46;96825.00;;;11.30
10869;BMP180;62667;48.698;8.762;2023-10-08T05:39:32;96831.00;;;11.40
10869;BMP180;62667;48.698;8.762;2023-10-08T05:42:09;96824.00;;;11.40
10869;BMP180;62667;48.698;8.762;2023-10-08T05:44:46;96814.00;;;11.40
10869;BMP180;62667;48.698;8.762;2023-10-08T05:47:33;96829.00;;;11.50
10869;BMP180;62667;48.698;8.762;2023-10-08T05:50:08;96821.00;;;11.40
10869;BMP180;62667;48.698;8.762;2023-10-08T05:52:56;96830.00;;;11.40
10869;BMP180;62667;48.698;8.762;2023-10-08T05:55:41;96824.00;;;11.50
10869;BMP180;62667;48.698;8.762;2023-10-08T05:58:13;96820.00;;;11.60
10869;BMP180;62667;48.698;8.762;2023-10-08T06:00:51;96819.00;;;11.60
10869;BMP180;62667;48.698;8.762;2023-10-08T06:03:35;96828.00;;;11.70
10869;BMP180;62667;48.698;8.762;2023-10-08T06:06:07;96826.00;;;11.70
10869;BMP180;62667;48.698;8.762;2023-10-08T06:09:06;96837.00;;;11.70
10869;BMP180;62667;48.698;8.762;2023-10-08T06:11:48;96840.00;;;11.80
10869;BMP180;62667;48.698;8.762;2023-10-08T06:14:38;96841.00;;;11.80
10869;BMP180;62667;48.698;8.762;2023-10-08T06:17:34;96831.00;;;11.90
10869;BMP180;62667;48.698;8.762;2023-10-08T06:20:22;96845.00;;;11.90
10869;BMP180;62667;48.698;8.762;2023-10-08T06:22:52;96841.00;;;12.00
10869;BMP180;62667;48.698;8.762;2023-10-08T06:25:27;96836.00;;;12.00
10869;BMP180;62667;48.698;8.762;2023-10-08T06:27:56;96844.00;;;11.90
10869;BMP180;62667;48.698;8.762;2023-10-08T06:30:24;96839.00;;;12.30
10869;BMP180;62667;48.698;8.762;2023-10-08T06:32:56;96853.00;;;12.50
10869;BMP180;62667;48.698;8.762;2023-10-08T06:35:23;96858.00;;;12.60
10869;BMP180;62667;48.698;8.762;2023-10-08T06:37:54;96854.00;;;12.50
10869;BMP180;62667;48.698;8.762;2023-10-08T06:40:26;96851.00;;;12.60
10869;BMP180;62667;48.698;8.762;2023-10-08T06:43:09;96855.00;;;12.60
10869;BMP180;62667;48.698;8.762;2023-10-08T06:45:48;96846.00;;;12.60
10869;BMP180;62667;48.698;8.762;2023-10-08T06:48:19;96845.00;;;12.80
10869;BMP180;62667;48.698;8.762;2023-10-08T06:50:49;96831.00;;;12.80
10869;BMP180;62667;48.698;8.762;2023-10-08T06:53:17;96844.00;;;12.90
10869;BMP180;62667;48.698;8.762;2023-10-08T06:55:46;96852.00;;;13.20
10869;BMP180;62667;48.698;8.762;2023-10-08T06:58:14;96847.00;;;13.40
10869;BMP180;62667;48.698;8.762;2023-10-08T07:00:42;96845.00;;;13.60
10869;BMP180;62667;48.698;8.762;2023-10-08T07:03:15;96861.00;;;13.90
10869;BMP180;62667;48.698;8.762;2023-10-08T07:05:45;96860.00;;;14.00
10869;BMP180;62667;48.698;8.762;2023-10-08T07:08:21;96852.00;;;14.00
10869;BMP180;62667;48.698;8.762;2023-10-08T07:10:52;96859.00;;;13.90
10869;BMP180;62667;48.698;8.762;2023-10-08T07:13:20;96842.00;;;14.10
10869;BMP180;62667;48.698;8.762;2023-10-08T07:15:49;96862.00;;;14.40
10869;BMP180;62667;48.698;8.762;2023-10-08T07:18:16;96855.00;;;14.50
10869;BMP180;62667;48.698;8.762;2023-10-08T07:20:51;96852.00;;;14.70
10869;BMP180;62667;48.698;8.762;2023-10-08T07:23:21;96833.00;;;14.80
10869;BMP180;62667;48.698;8.762;2023-10-08T07:25:58;96843.00;;;15.10
10869;BMP180;62667;48.698;8.762;2023-10-08T07:28:36;96849.00;;;15.30
10869;BMP180;62667;48.698;8.762;2023-10-08T07:31:05;96858.00;;;15.40
10869;BMP180;62667;48.698;8.762;2023-10-08T07:33:35;96856.00;;;15.50
10869;BMP180;62667;48.698;8.762;2023-10-08T07:36:03;96852.00;;;15.80
10869;BMP180;62667;48.698;8.762;2023-10-08T07:38:40;96856.00;;;16.00
10869;BMP180;62667;48.698;8.762;2023-10-08T07:41:09;96864.00;;;16.10
10869;BMP180;62667;48.698;8.762;2023-10-08T07:43:38;96881.00;;;16.20
10869;BMP180;62667;48.698;8.762;2023-10-08T07:46:05;96878.00;;;16.20
10869;BMP180;62667;48.698;8.762;2023-10-08T07:48:32;96875.00;;;16.20
10869;BMP180;62667;48.698;8.762;2023-10-08T07:50:59;96881.00;;;16.30
10869;BMP180;62667;48.698;8.762;2023-10-08T07:53:27;96876.00;;;16.30
10869;BMP180;62667;48.698;8.762;2023-10-08T07:56:05;96876.00;;;16.40
10869;BMP180;62667;48.698;8.762;2023-10-08T07:58:35;96884.00;;;16.30
10869;BMP180;62667;48.698;8.762;2023-10-08T08:01:04;96881.00;;;16.30
10869;BMP180;62667;48.698;8.762;2023-10-08T08:03:33;96882.00;;;16.30
10869;BMP180;62667;48.698;8.762;2023-10-08T08:06:04;96871.00;;;16.30
10869;BMP180;62667;48.698;8.762;2023-10-08T08:08:33;96880.00;;;16.40
10869;BMP180;62667;48.698;8.762;2023-10-08T08:11:02;96869.00;;;16.30
10869;BMP180;62667;48.698;8.762;2023-10-08T08:13:34;96871.00;;;16.30
10869;BMP180;62667;48.698;8.762;2023-10-08T08:16:02;96876.00;;;16.30
10869;BMP180;62667;48.698;8.762;2023-10-08T08:18:42;96874.00;;;16.40
10869;BMP180;62667;48.698;8.762;2023-10-08T08:21:10;96877.00;;;16.60
10869;BMP180;62667;48.698;8.762;2023-10-08T08:23:41;96874.00;;;16.80
10869;BMP180;62667;48.698;8.762;2023-10-08T08:26:15;96881.00;;;16.90
10869;BMP180;62667;48.698;8.762;2023-10-08T08:28:54;96882.00;;;17.10
10869;BMP180;62667;48.698;8.762;2023-10-08T08:31:23;96884.00;;;17.20
10869;BMP180;62667;48.698;8.762;2023-10-08T08:33:52;96887.00;;;17.30
10869;BMP180;62667;48.698;8.762;2023-10-08T08:36:28;96875.00;;;17.60
10869;BMP180;62667;48.698;8.762;2023-10-08T08:38:56;96877.00;;;17.90
10869;BMP180;62667;48.698;8.762;2023-10-08T08:41:24;96888.00;;;18.20
10869;BMP180;62667;48.698;8.762;2023-10-08T08:43:54;96904.00;;;18.30
10869;BMP180;62667;48.698;8.762;2023-10-08T08:46:33;96908.00;;;18.50
10869;BMP180;62667;48.698;8.762;2023-10-08T08:49:04;96911.00;;;18.70
10869;BMP180;62667;48.698;8.762;2023-10-08T08:51:34;96922.00;;;18.90
10869;BMP180;62667;48.698;8.762;2023-10-08T08:54:02;96919.00;;;19.10
10869;BMP180;62667;48.698;8.762;2023-10-08T08:56:33;96909.00;;;19.40
10869;BMP180;62667;48.698;8.762;2023-10-08T08:59:04;96920.00;;;19.70
10869;BMP180;62667;48.698;8.762;2023-10-08T09:01:32;96923.00;;;20.00
10869;BMP180;62667;48.698;8.762;2023-10-08T09:03:59;96922.00;;;20.10
10869;BMP180;62667;48.698;8.762;2023-10-08T09:06:27;96931.00;;;20.00
10869;BMP180;62667;48.698;8.762;2023-10-08T09:08:54;96935.00;;;20.10
10869;BMP180;62667;48.698;8.762;2023-10-08T09:11:39;96943.00;;;20.30
10869;BMP180;62667;48.698;8.762;2023-10-08T09:14:09;96938.00;;;20.50
10869;BMP180;62667;48.698;8.762;2023-10-08T09:16:38;96945.00;;;20.60
10869;BMP180;62667;48.698;8.762;2023-10-08T09:19:05;96942.00;;;20.80
10869;BMP180;62667;48.698;8.762;2023-10-08T09:21:38;96945.00;;;21.00
10869;BMP180;62667;48.698;8.762;2023-10-08T09:24:06;96939.00;;;21.30
10869;BMP180;62667;48.698;8.762;2023-10-08T09:26:36;96937.00;;;21.50
10869;BMP180;62667;48.698;8.762;2023-10-08T09:29:05;96935.00;;;21.50
10869;BMP180;62667;48.698;8.762;2023-10-08T09:31:36;96942.00;;;21.80
10869;BMP180;62667;48.698;8.762;2023-10-08T09:34:04;96943.00;;;21.90
10869;BMP180;62667;48.698;8.762;2023-10-08T09:36:32;96944.00;;;22.00
10869;BMP180;62667;48.698;8.762;2023-10-08T09:39:01;96934.00;;;22.10
10869;BMP180;62667;48.698;8.762;2023-10-08T09:41:31;96938.00;;;22.30
10869;BMP180;62667;48.698;8.762;2023-10-08T09:43:59;96933.00;;;22.40
10869;BMP180;62667;48.698;8.762;2023-10-08T09:46:30;96933.00;;;22.50
10869;BMP180;62667;48.698;8.762;2023-10-08T09:49:01;96940.00;;;22.60
10869;BMP180;62667;48.698;8.762;2023-10-08T09:51:30;96942.00;;;22.60
10869;BMP180;62667;48.698;8.762;2023-10-08T09:54:05;96937.00;;;22.40
10869;BMP180;62667;48.698;8.762;2023-10-08T09:56:36;96932.00;;;22.40
10869;BMP180;62667;48.698;8.762;2023-10-08T09:59:06;96938.00;;;22.60
10869;BMP180;62667;48.698;8.762;2023-10-08T10:01:36;96935.00;;;22.90
10869;BMP180;62667;48.698;8.762;2023-10-08T10:04:09;96930.00;;;23.40
10869;BMP180;62667;48.698;8.762;2023-10-08T10:06:36;96930.00;;;23.70
10869;BMP180;62667;48.698;8.762;2023-10-08T10:09:05;96935.00;;;23.80
10869;BMP180;62667;48.698;8.762;2023-10-08T10:11:35;96942.00;;;23.90
10869;BMP180;62667;48.698;8.762;2023-10-08T10:14:03;96934.00;;;23.90
10869;BMP180;62667;48.698;8.762;2023-10-08T10:16:36;96937.00;;;23.90
10869;BMP180;62667;48.698;8.762;2023-10-08T10:19:03;96931.00;;;24.00
10869;BMP180;62667;48.698;8.762;2023-10-08T10:21:34;96931.00;;;24.00
10869;BMP180;62667;48.698;8.762;2023-10-08T10:24:01;96934.00;;;24.20
10869;BMP180;62667;48.698;8.762;2023-10-08T10:26:33;96937.00;;;24.50
10869;BMP180;62667;48.698;8.762;2023-10-08T10:29:20;96934.00;;;24.60
10869;BMP180;62667;48.698;8.762;2023-10-08T10:31:49;96929.00;;;24.60
10869;BMP180;62667;48.698;8.762;2023-10-08T10:34:22;96929.00;;;24.70
10869;BMP180;62667;48.698;8.762;2023-10-08T10:36:51;96930.00;;;25.10
10869;BMP180;62667;48.698;8.762;2023-10-08T10:39:29;96929.00;;;25.20
10869;BMP180;62667;48.698;8.762;2023-10-08T10:42:01;96928.00;;;25.30
10869;BMP180;62667;48.698;8.762;2023-10-08T10:44:32;96936.00;;;25.30
10869;BMP180;62667;48.698;8.762;2023-10-08T10:47:03;96934.00;;;25.10
10869;BMP180;62667;48.698;8.762;2023-10-08T10:49:49;96932.00;;;25.50
10869;BMP180;62667;48.698;8.762;2023-10-08T10:52:22;96929.00;;;25.70
10869;BMP180;62667;48.698;8.762;2023-10-08T10:55:03;96935.00;;;26.00
10869;BMP180;62667;48.698;8.762;2023-10-08T10:57:47;96925.00;;;25.70
10869;BMP180;62667;48.698;8.762;2023-10-08T11:00:23;96915.00;;;26.00
10869;BMP180;62667;48.698;8.762;2023-10-08T11:03:07;96932.00;;;26.20
10869;BMP180;62667;48.698;8.762;2023-10-08T11:05:45;96923.00;;;26.30
10869;BMP180;62667;48.698;8.762;2023-10-08T11:08:19;96930.00;;;26.50
10869;BMP180;62667;48.698;8.762;2023-10-08T11:10:49;96931.00;;;26.50
10869;BMP180;62667;48.698;8.762;2023-10-08T11:13:21;96938.00;;;26.80
10869;BMP180;62667;48.698;8.762;2023-10-08T11:15:55;96934.00;;;27.10
10869;BMP180;62667;48.698;8.762;2023-10-08T11:18:26;96937.00;;;27.10
10869;BMP180;62667;48.698;8.762;2023-10-08T11:21:06;96936.00;;;27.50
10869;BMP180;62667;48.698;8.762;2023-10-08T11:23:48;96928.00;;;27.50
10869;BMP180;62667;48.698;8.762;2023-10-08T11:26:20;96940.00;;;27.70
10869;BMP180;62667;48.698;8.762;2023-10-08T11:28:59;96936.00;;;28.00
10869;BMP180;62667;48.698;8.762;2023-10-08T11:31:29;96923.00;;;28.10
10869;BMP180;62667;48.698;8.762;2023-10-08T11:34:02;96934.00;;;28.10
10869;BMP180;62667;48.698;8.762;2023-10-08T11:36:36;96937.00;;;28.10
10869;BMP180;62667;48.698;8.762;2023-10-08T11:39:16;96936.00;;;28.00
10869;BMP180;62667;48.698;8.762;2023-10-08T11:41:56;96939.00;;;27.90
10869;BMP180;62667;48.698;8.762;2023-10-08T11:44:24;96952.00;;;27.80
10869;BMP180;62667;48.698;8.762;2023-10-08T11:46:56;96943.00;;;27.50
10869;BMP180;62667;48.698;8.762;2023-10-08T11:49:30;96928.00;;;27.90
10869;BMP180;62667;48.698;8.762;2023-10-08T11:52:02;96926.00;;;28.10
10869;BMP180;62667;48.698;8.762;2023-10-08T11:54:31;96926.00;;;28.30
10869;BMP180;62667;48.698;8.762;2023-10-08T11:57:00;96930.00;;;28.80
10869;BMP180;62667;48.698;8.762;2023-10-08T11:59:28;96928.00;;;29.20
10869;BMP180;62667;48.698;8.762;2023-10-08T12:01:58;96924.00;;;29.30
10869;BMP180;62667;48.698;8.762;2023-10-08T12:04:25;96922.00;;;29.60
10869;BMP180;62667;48.698;8.762;2023-10-08T12:06:55;96913.00;;;29.70
10869;BMP180;62667;48.698;8.762;2023-10-08T12:09:22;96920.00;;;29.50
10869;BMP180;62667;48.698;8.762;2023-10-08T12:11:54;96913.00;;;29.50
10869;BMP180;62667;48.698;8.762;2023-10-08T12:14:23;96921.00;;;29.60
10869;BMP180;62667;48.698;8.762;2023-10-08T12:16:56;96925.00;;;29.00
10869;BMP180;62667;48.698;8.762;2023-10-08T12:19:26;96919.00;;;29.00
10869;BMP180;62667;48.698;8.762;2023-10-08T12:21:58;96927.00;;;29.20
10869;BMP180;62667;48.698;8.762;2023-10-08T12:24:28;96914.00;;;29.30
10869;BMP180;62667;48.698;8.762;2023-10-08T12:26:57;96920.00;;;29.40
10869;BMP180;62667;48.698;8.762;2023-10-08T12:29:25;96916.00;;;29.50
10869;BMP180;62667;48.698;8.762;2023-10-08T12:31:53;96917.00;;;29.10
10869;BMP180;62667;48.698;8.762;2023-10-08T12:34:20;96913.00;;;28.90
10869;BMP180;62667;48.698;8.762;2023-10-08T12:36:48;96905.00;;;29.30
10869;BMP180;62667;48.698;8.762;2023-10-08T12:39:16;96914.00;;;29.00
10869;BMP180;62667;48.698;8.762;2023-10-08T12:41:44;96921.00;;;29.00
10869;BMP180;62667;48.698;8.762;2023-10-08T12:44:12;96915.00;;;28.80
10869;BMP180;62667;48.698;8.762;2023-10-08T12:46:41;96913.00;;;28.90
10869;BMP180;62667;48.698;8.762;2023-10-08T12:49:10;96909.00;;;28.90
10869;BMP180;62667;48.698;8.762;2023-10-08T12:51:37;96894.00;;;28.40
10869;BMP180;62667;48.698;8.762;2023-10-08T12:54:07;96911.00;;;28.60
10869;BMP180;62667;48.698;8.762;2023-10-08T12:56:37;96913.00;;;28.90
10869;BMP180;62667;48.698;8.762;2023-10-08T12:59:11;96913.00;;;28.60
10869;BMP180;62667;48.698;8.762;2023-10-08T13:01:46;96919.00;;;29.00
10869;BMP180;62667;48.698;8.762;2023-10-08T13:04:16;96911.00;;;29.60
10869;BMP180;62667;48.698;8.762;2023-10-08T13:06:51;96898.00;;;30.70
10869;BMP180;62667;48.698;8.762;2023-10-08T13:09:23;96887.00;;;32.00
10869;BMP180;62667;48.698;8.762;2023-10-08T13:11:50;96893.00;;;32.50
10869;BMP180;62667;48.698;8.762;2023-10-08T13:14:18;96890.00;;;33.60
10869;BMP180;62667;48.698;8.762;2023-10-08T13:16:48;96881.00;;;33.80
10869;BMP180;62667;48.698;8.762;2023-10-08T13:19:19;96879.00;;;34.30
10869;BMP180;62667;48.698;8.762;2023-10-08T13:21:48;96875.00;;;34.30
10869;BMP180;62667;48.698;8.762;2023-10-08T13:24:18;96867.00;;;34.20
10869;BMP180;62667;48.698;8.762;2023-10-08T13:26:45;96864.00;;;35.40
10869;BMP180;62667;48.698;8.762;2023-10-08T13:29:14;96861.00;;;34.90
10869;BMP180;62667;48.698;8.762;2023-10-08T13:31:45;96867.00;;;36.00
10869;BMP180;62667;48.698;8.762;2023-10-08T13:34:14;96864.00;;;37.20
10869;BMP180;62667;48.698;8.762;2023-10-08T13:36:42;96873.00;;;37.20
10869;BMP180;62667;48.698;8.762;2023-10-08T13:39:13;96866.00;;;37.60
10869;BMP180;62667;48.698;8.762;2023-10-08T13:41:44;96860.00;;;38.10
10869;BMP180;62667;48.698;8.762;2023-10-08T13:44:14;96856.00;;;38.50
10869;BMP180;62667;48.698;8.762;2023-10-08T13:46:41;96866.00;;;39.50
10869;BMP180;62667;48.698;8.762;2023-10-08T13:49:16;96862.00;;;40.00
10869;BMP180;62667;48.698;8.762;2023-10-08T13:51:44;96868.00;;;39.90
10869;BMP180;62667;48.698;8.762;2023-10-08T13:54:13;96870.00;;;39.40
10869;BMP180;62667;48.698;8.762;2023-10-08T13:56:40;96864.00;;;39.40
10869;BMP180;62667;48.698;8.762;2023-10-08T13:59:14;96866.00;;;40.30
10869;BMP180;62667;48.698;8.762;2023-10-08T14:01:43;96870.00;;;41.20
10869;BMP180;62667;48.698;8.762;2023-10-08T14:04:12;96863.00;;;41.50
10869;BMP180;62667;48.698;8.762;2023-10-08T14:06:44;96867.00;;;41.70
10869;BMP180;62667;48.698;8.762;2023-10-08T14:09:18;96871.00;;;42.20
10869;BMP180;62667;48.698;8.762;2023-10-08T14:11:48;96871.00;;;42.40
10869;BMP180;62667;48.698;8.762;2023-10-08T14:14:18;96875.00;;;40.90
10869;BMP180;62667;48.698;8.762;2023-10-08T14:16:50;96871.00;;;40.10
10869;BMP180;62667;48.698;8.762;2023-10-08T14:19:18;96870.00;;;40.00
10869;BMP180;62667;48.698;8.762;2023-10-08T14:21:55;96875.00;;;40.90
10869;BMP180;62667;48.698;8.762;2023-10-08T14:24:29;96868.00;;;41.30
10869;BMP180;62667;48.698;8.762;2023-10-08T14:27:01;96861.00;;;41.70
10869;BMP180;62667;48.698;8.762;2023-10-08T14:29:29;96867.00;;;42.10
10869;BMP180;62667;48.698;8.762;2023-10-08T14:32:00;96864.00;;;42.40
10869;BMP180;62667;48.698;8.762;2023-10-08T14:34:27;96896.00;;;41.10
10869;BMP180;62667;48.698;8.762;2023-10-08T14:37:13;96881.00;;;39.90
10869;BMP180;62667;48.698;8.762;2023-10-08T14:39:58;96886.00;;;39.10
10869;BMP180;62667;48.698;8.762;2023-10-08T14:42:43;96859.00;;;39.90